createdAt,value
2023-07-09T00:01:18.385Z,25.79
2023-07-09T00:03:49.698Z,26.01
2023-07-09T00:06:19.306Z,25.95
2023-07-09T00:08:49.095Z,25.58
2023-07-09T00:11:17.718Z,25.67
2023-07-09T00:13:45.664Z,25.44
2023-07-09T00:16:18.239Z,25.29
2023-07-09T00:18:45.895Z,25.83
2023-07-09T00:21:14.477Z,25.49
2023-07-09T00:23:42.884Z,25.89
2023-07-09T00:26:16.885Z,25.99
2023-07-09T00:28:45.205Z,25.29
2023-07-09T00:31:17.581Z,25.27
2023-07-09T00:33:47.674Z,25.20
2023-07-09T00:36:18.162Z,25.31
2023-07-09T00:38:49.257Z,25.39
2023-07-09T00:41:20.335Z,25.08
2023-07-09T00:43:49.001Z,25.21
2023-07-09T00:46:24.821Z,25.17
2023-07-09T00:48:59.102Z,25.18
2023-07-09T00:51:27.476Z,25.63
2023-07-09T00:53:59.890Z,25.52
2023-07-09T00:56:35.236Z,25.48
2023-07-09T00:59:05.698Z,25.39
2023-07-09T01:01:34.994Z,25.68
2023-07-09T01:04:04.803Z,25.52
2023-07-09T01:06:37.449Z,25.22
2023-07-09T01:09:05.512Z,24.94
2023-07-09T01:11:34.390Z,25.12
2023-07-09T01:14:04.251Z,25.23
2023-07-09T01:16:58.287Z,25.42
2023-07-09T01:19:27.460Z,24.79
2023-07-09T01:22:03.136Z,24.20
2023-07-09T01:24:49.024Z,24.72
2023-07-09T01:27:18.631Z,25.58
2023-07-09T01:29:50.228Z,25.51
2023-07-09T01:32:19.875Z,25.13
2023-07-09T01:34:49.136Z,24.93
2023-07-09T01:37:23.124Z,25.01
2023-07-09T01:39:51.717Z,25.17
2023-07-09T01:42:22.845Z,25.03
2023-07-09T01:44:51.948Z,24.62
2023-07-09T01:47:19.527Z,24.70
2023-07-09T01:49:47.679Z,25.04
2023-07-09T01:52:17.394Z,25.20
2023-07-09T01:54:47.471Z,24.91
2023-07-09T01:57:16.162Z,25.19
2023-07-09T01:59:43.408Z,25.08
2023-07-09T02:02:19.542Z,25.29
2023-07-09T02:04:51.769Z,25.55
2023-07-09T02:07:20.711Z,24.88
2023-07-09T02:09:48.244Z,24.69
2023-07-09T02:12:16.571Z,24.05
2023-07-09T02:14:45.471Z,24.72
2023-07-09T02:17:14.471Z,25.32
2023-07-09T02:19:42.077Z,25.24
2023-07-09T02:22:09.784Z,24.92
2023-07-09T02:24:37.517Z,25.28
2023-07-09T02:27:07.739Z,25.04
2023-07-09T02:29:35.678Z,24.85
2023-07-09T02:32:03.644Z,25.43
2023-07-09T02:34:32.097Z,25.35
2023-07-09T02:37:00.415Z,25.12
2023-07-09T02:39:28.444Z,25.14
2023-07-09T02:41:55.949Z,24.89
2023-07-09T02:44:23.609Z,25.04
2023-07-09T02:46:50.995Z,25.11
2023-07-09T02:49:19.441Z,25.23
2023-07-09T02:51:46.755Z,25.28
2023-07-09T02:54:14.213Z,24.90
2023-07-09T02:56:41.715Z,25.18
2023-07-09T02:59:09.210Z,24.93
2023-07-09T03:01:37.019Z,23.91
2023-07-09T03:04:04.886Z,23.70
2023-07-09T03:06:34.953Z,23.75
2023-07-09T03:09:03.607Z,24.14
2023-07-09T03:11:32.786Z,24.26
2023-07-09T03:14:01.186Z,24.91
2023-07-09T03:16:30.388Z,24.94
2023-07-09T03:18:57.901Z,23.81
2023-07-09T03:21:26.955Z,24.05
2023-07-09T03:23:55.021Z,24.74
2023-07-09T03:26:22.751Z,24.97
2023-07-09T03:28:50.344Z,24.63
2023-07-09T03:31:17.720Z,24.58
2023-07-09T03:33:45.925Z,23.92
2023-07-09T03:36:13.303Z,24.25
2023-07-09T03:38:40.680Z,25.02
2023-07-09T03:41:08.206Z,25.11
2023-07-09T03:43:35.589Z,24.30
2023-07-09T03:46:03.815Z,23.97
2023-07-09T03:48:31.960Z,23.88
2023-07-09T03:50:59.398Z,24.12
2023-07-09T03:53:26.744Z,23.69
2023-07-09T03:55:55.752Z,22.47
2023-07-09T03:58:25.070Z,22.31
2023-07-09T04:00:52.673Z,23.54
2023-07-09T04:03:20.067Z,24.79
2023-07-09T04:05:48.504Z,25.22
2023-07-09T04:08:15.894Z,25.53
2023-07-09T04:10:43.280Z,25.07
2023-07-09T04:13:11.610Z,23.63
2023-07-09T04:15:39.170Z,23.03
2023-07-09T04:18:06.714Z,23.80
2023-07-09T04:20:36.130Z,24.00
2023-07-09T04:23:03.731Z,24.36
2023-07-09T04:25:31.336Z,24.30
2023-07-09T04:27:58.863Z,23.45
2023-07-09T04:30:26.357Z,23.58
2023-07-09T04:32:53.840Z,23.29
2023-07-09T04:35:21.301Z,23.17
2023-07-09T04:37:49.166Z,23.82
2023-07-09T04:40:19.542Z,23.13
2023-07-09T04:42:47.071Z,23.22
2023-07-09T04:45:15.868Z,23.72
2023-07-09T04:47:43.385Z,24.00
2023-07-09T04:50:12.692Z,23.39
2023-07-09T04:52:40.242Z,23.15
2023-07-09T04:55:09.926Z,23.01
2023-07-09T04:57:37.573Z,24.01
2023-07-09T05:00:06.422Z,23.53
2023-07-09T05:02:34.442Z,24.37
2023-07-09T05:05:01.985Z,23.29
2023-07-09T05:07:29.645Z,23.48
2023-07-09T05:09:57.072Z,23.77
2023-07-09T05:12:27.724Z,23.55
2023-07-09T05:14:57.630Z,23.43
2023-07-09T05:17:25.027Z,23.67
2023-07-09T05:19:52.530Z,24.01
2023-07-09T05:22:19.892Z,23.68
2023-07-09T05:24:47.445Z,24.28
2023-07-09T05:27:14.867Z,24.37
2023-07-09T05:29:42.372Z,25.08
2023-07-09T05:32:09.741Z,24.33
2023-07-09T05:34:37.497Z,23.99
2023-07-09T05:37:05.026Z,24.24
2023-07-09T05:39:32.346Z,24.08
2023-07-09T05:41:59.732Z,24.50
2023-07-09T05:44:27.243Z,24.39
2023-07-09T05:46:54.717Z,24.52
2023-07-09T05:49:22.134Z,24.96
2023-07-09T05:51:49.651Z,24.56
2023-07-09T05:54:17.139Z,24.52
2023-07-09T05:56:44.566Z,24.32
2023-07-09T05:59:12.018Z,24.48
2023-07-09T06:01:39.412Z,24.36
2023-07-09T06:04:07.796Z,24.18
2023-07-09T06:06:35.332Z,23.86
2023-07-09T06:09:02.670Z,23.81
2023-07-09T06:11:30.601Z,23.97
2023-07-09T06:13:58.045Z,24.35
2023-07-09T06:16:25.460Z,24.45
2023-07-09T06:18:52.894Z,24.47
2023-07-09T06:21:20.429Z,24.82
2023-07-09T06:23:47.880Z,24.84
2023-07-09T06:26:15.203Z,24.47
2023-07-09T06:28:42.715Z,24.16
2023-07-09T06:31:10.456Z,24.32
2023-07-09T06:33:37.968Z,24.61
2023-07-09T06:36:06.255Z,25.07
2023-07-09T06:38:34.680Z,24.60
2023-07-09T06:41:02.182Z,24.58
2023-07-09T06:43:29.665Z,24.56
2023-07-09T06:45:59.402Z,24.75
2023-07-09T06:48:29.036Z,24.48
2023-07-09T06:50:57.481Z,24.27
2023-07-09T06:53:25.548Z,24.52
2023-07-09T06:55:56.762Z,24.45
2023-07-09T06:58:26.842Z,24.48
2023-07-09T07:00:54.153Z,24.48
2023-07-09T07:03:22.614Z,24.85
2023-07-09T07:05:55.066Z,25.07
2023-07-09T07:08:26.332Z,24.73
2023-07-09T07:11:03.630Z,24.06
2023-07-09T07:13:32.679Z,23.75
2023-07-09T07:16:00.465Z,24.06
2023-07-09T07:18:28.046Z,25.06
2023-07-09T07:20:55.592Z,25.46
2023-07-09T07:23:23.152Z,24.93
2023-07-09T07:25:50.657Z,25.37
2023-07-09T07:28:18.032Z,25.05
2023-07-09T07:30:45.860Z,24.61
2023-07-09T07:33:15.181Z,24.43
2023-07-09T07:36:00.446Z,25.34
2023-07-09T07:38:30.239Z,25.54
2023-07-09T07:40:57.687Z,24.93
2023-07-09T07:43:25.133Z,24.38
2023-07-09T07:45:52.461Z,24.86
2023-07-09T07:48:20.199Z,24.90
2023-07-09T07:50:49.317Z,24.63
2023-07-09T07:53:16.937Z,25.19
2023-07-09T07:55:44.498Z,24.85
2023-07-09T07:58:13.922Z,23.44
2023-07-09T08:00:41.617Z,24.27
2023-07-09T08:03:09.224Z,24.52
2023-07-09T08:05:37.016Z,24.22
2023-07-09T08:08:04.592Z,24.25
2023-07-09T08:10:32.044Z,23.76
2023-07-09T08:12:59.430Z,23.47
2023-07-09T08:15:27.245Z,23.83
2023-07-09T08:17:54.726Z,23.64
2023-07-09T08:20:22.235Z,23.06
2023-07-09T08:22:49.647Z,23.42
2023-07-09T08:25:17.093Z,23.63
2023-07-09T08:27:44.531Z,23.76
2023-07-09T08:30:12.172Z,23.87
2023-07-09T08:32:39.688Z,23.53
2023-07-09T08:35:34.065Z,23.67
2023-07-09T08:37:54.840Z,23.09
2023-07-09T08:40:22.429Z,23.61
2023-07-09T08:43:00.766Z,24.06
2023-07-09T08:45:50.841Z,23.74
2023-07-09T08:48:33.462Z,24.18
2023-07-09T08:51:18.669Z,24.25
2023-07-09T08:53:58.907Z,23.38
2023-07-09T08:56:28.385Z,23.46
2023-07-09T08:58:57.561Z,23.83
2023-07-09T09:01:51.127Z,23.21
2023-07-09T09:04:35.629Z,23.36
2023-07-09T09:07:28.657Z,23.28
2023-07-09T09:10:02.583Z,23.50
2023-07-09T09:13:07.781Z,23.85
2023-07-09T09:15:35.412Z,23.98
2023-07-09T09:18:20.636Z,23.67
2023-07-09T09:20:58.127Z,23.63
2023-07-09T09:23:33.124Z,23.63
2023-07-09T09:26:13.125Z,23.96
2023-07-09T09:28:41.308Z,24.59
2023-07-09T09:31:12.281Z,25.00
2023-07-09T09:33:45.053Z,25.24
2023-07-09T09:36:24.986Z,24.75
2023-07-09T09:38:52.468Z,25.00
2023-07-09T09:41:22.022Z,24.76
2023-07-09T09:43:50.538Z,24.67
2023-07-09T09:46:21.074Z,24.69
2023-07-09T09:48:50.617Z,24.68
2023-07-09T09:51:19.296Z,24.57
2023-07-09T09:53:51.130Z,24.30
2023-07-09T09:56:22.808Z,23.88
2023-07-09T09:58:54.476Z,24.16
2023-07-09T10:01:27.975Z,24.35
2023-07-09T10:03:58.007Z,24.55
2023-07-09T10:06:35.701Z,24.81
2023-07-09T10:09:18.003Z,25.40
2023-07-09T10:11:48.000Z,25.57
2023-07-09T10:14:25.530Z,25.02
2023-07-09T10:16:58.647Z,24.75
2023-07-09T10:19:44.356Z,24.75
2023-07-09T10:22:21.460Z,24.75
2023-07-09T10:25:01.148Z,24.87
2023-07-09T10:27:44.621Z,24.99
2023-07-09T10:30:22.631Z,24.80
2023-07-09T10:33:12.568Z,24.83
2023-07-09T10:35:45.724Z,24.64
2023-07-09T10:38:18.818Z,24.48
2023-07-09T10:40:55.833Z,24.56
2023-07-09T10:43:38.600Z,24.74
2023-07-09T10:46:12.989Z,25.00
2023-07-09T10:48:46.683Z,24.52
2023-07-09T10:51:22.704Z,24.63
2023-07-09T10:53:56.060Z,24.87
2023-07-09T10:56:27.530Z,24.99
2023-07-09T10:59:17.538Z,24.53
2023-07-09T11:01:48.909Z,24.35
2023-07-09T11:04:26.687Z,24.61
2023-07-09T11:06:56.832Z,24.84
2023-07-09T11:09:26.397Z,25.10
2023-07-09T11:11:56.619Z,24.86
2023-07-09T11:14:41.979Z,25.04
2023-07-09T11:17:15.548Z,25.30
2023-07-09T11:19:44.964Z,25.14
2023-07-09T11:22:19.873Z,25.56
2023-07-09T11:24:51.905Z,25.78
2023-07-09T11:27:28.996Z,25.86
2023-07-09T11:30:17.108Z,25.03
2023-07-09T11:32:49.418Z,24.75
2023-07-09T11:35:26.008Z,24.91
2023-07-09T11:37:54.375Z,25.24
2023-07-09T11:40:22.982Z,25.36
2023-07-09T11:42:55.300Z,25.43
2023-07-09T11:45:29.754Z,25.47
2023-07-09T11:48:26.649Z,26.00
2023-07-09T11:50:55.747Z,25.83
2023-07-09T11:53:29.161Z,25.90
2023-07-09T11:55:56.790Z,25.45
2023-07-09T11:58:24.137Z,25.63
2023-07-09T12:00:53.569Z,25.61
2023-07-09T12:03:38.454Z,25.92
2023-07-09T12:06:14.989Z,26.12
2023-07-09T12:08:43.645Z,26.12
2023-07-09T12:11:31.180Z,25.94
2023-07-09T12:14:05.168Z,25.88
2023-07-09T12:16:36.788Z,25.96
2023-07-09T12:19:04.527Z,25.83
2023-07-09T12:21:34.876Z,25.96
2023-07-09T12:24:03.560Z,25.92
2023-07-09T12:26:32.174Z,25.70
2023-07-09T12:29:00.044Z,26.05
2023-07-09T12:31:30.468Z,26.13
2023-07-09T12:33:59.725Z,26.21
2023-07-09T12:36:28.558Z,26.11
2023-07-09T12:39:03.965Z,26.17
2023-07-09T12:41:43.159Z,26.24
2023-07-09T12:44:22.880Z,26.61
2023-07-09T12:46:52.231Z,26.41
2023-07-09T12:49:31.158Z,25.84
2023-07-09T12:51:59.793Z,26.24
2023-07-09T12:54:29.700Z,26.56
2023-07-09T12:56:57.699Z,26.33
2023-07-09T12:59:29.947Z,26.57
2023-07-09T13:02:02.989Z,27.22
2023-07-09T13:04:40.055Z,26.96
2023-07-09T13:07:27.598Z,27.21
2023-07-09T13:09:56.667Z,27.05
2023-07-09T13:12:34.043Z,27.54
2023-07-09T13:15:01.741Z,27.77
2023-07-09T13:17:31.637Z,27.44
2023-07-09T13:20:00.365Z,27.57
2023-07-09T13:22:29.420Z,27.58
2023-07-09T13:24:56.966Z,27.75
2023-07-09T13:27:25.438Z,27.73
2023-07-09T13:29:53.039Z,27.84
2023-07-09T13:32:20.367Z,27.66
2023-07-09T13:34:47.776Z,27.16
2023-07-09T13:37:17.058Z,27.34
2023-07-09T13:39:46.594Z,27.63
2023-07-09T13:42:18.014Z,27.96
2023-07-09T13:44:47.099Z,28.11
2023-07-09T13:47:20.141Z,27.77
2023-07-09T13:49:50.981Z,27.70
2023-07-09T13:52:21.949Z,27.90
2023-07-09T13:54:49.483Z,27.80
2023-07-09T13:57:21.118Z,27.93
2023-07-09T13:59:49.227Z,27.84
2023-07-09T14:02:32.787Z,28.08
2023-07-09T14:05:03.377Z,27.49
2023-07-09T14:07:36.495Z,28.03
2023-07-09T14:10:06.780Z,27.98
2023-07-09T14:12:42.956Z,27.60
2023-07-09T14:15:16.428Z,27.86
2023-07-09T14:17:45.128Z,27.97
2023-07-09T14:20:15.084Z,27.66
2023-07-09T14:22:43.967Z,27.54
2023-07-09T14:25:23.570Z,27.45
2023-07-09T14:27:52.041Z,27.71
2023-07-09T14:30:23.613Z,27.81
2023-07-09T14:32:52.309Z,27.36
2023-07-09T14:35:24.668Z,27.37
2023-07-09T14:37:53.453Z,27.56
2023-07-09T14:40:22.668Z,27.44
2023-07-09T14:42:50.792Z,27.54
2023-07-09T14:45:27.123Z,27.81
2023-07-09T14:47:54.921Z,27.53
2023-07-09T14:50:23.947Z,27.34
2023-07-09T14:52:51.345Z,27.41
2023-07-09T14:55:20.761Z,26.95
2023-07-09T14:57:49.368Z,26.69
2023-07-09T15:00:21.503Z,26.72
2023-07-09T15:02:51.742Z,26.64
2023-07-09T15:05:22.067Z,26.75
2023-07-09T15:07:50.051Z,26.28
2023-07-09T15:10:30.395Z,26.31
2023-07-09T15:12:57.968Z,26.33
2023-07-09T15:15:30.552Z,26.56
2023-07-09T15:18:01.405Z,26.71
2023-07-09T15:20:31.354Z,26.80
2023-07-09T15:22:59.109Z,26.74
2023-07-09T15:25:28.614Z,26.83
2023-07-09T15:27:59.139Z,26.71
2023-07-09T15:30:28.850Z,26.67
2023-07-09T15:33:00.387Z,26.56
2023-07-09T15:35:36.766Z,26.40
2023-07-09T15:38:21.561Z,26.43
2023-07-09T15:40:49.776Z,26.63
2023-07-09T15:43:17.790Z,26.59
2023-07-09T15:45:47.257Z,26.17
2023-07-09T15:48:23.948Z,26.21
2023-07-09T15:50:51.912Z,26.31
2023-07-09T15:53:22.910Z,26.60
2023-07-09T15:55:51.940Z,26.01
2023-07-09T15:58:28.117Z,25.90
2023-07-09T16:00:55.599Z,25.88
2023-07-09T16:03:23.484Z,25.92
2023-07-09T16:05:51.761Z,25.95
2023-07-09T16:08:19.220Z,26.04
2023-07-09T16:10:46.732Z,25.77
2023-07-09T16:13:22.532Z,25.81
2023-07-09T16:15:50.765Z,25.86
2023-07-09T16:18:19.088Z,26.00
2023-07-09T16:20:47.276Z,26.09
2023-07-09T16:23:20.554Z,26.08
2023-07-09T16:25:49.430Z,26.08
2023-07-09T16:28:20.517Z,26.01
2023-07-09T16:30:49.861Z,26.03
2023-07-09T16:33:17.332Z,25.92
2023-07-09T16:35:45.092Z,26.14
2023-07-09T16:38:13.244Z,26.07
2023-07-09T16:40:41.202Z,25.82
2023-07-09T16:43:16.752Z,25.79
2023-07-09T16:45:44.862Z,25.66
2023-07-09T16:48:23.780Z,25.77
2023-07-09T16:50:53.714Z,25.86
2023-07-09T16:53:22.598Z,25.94
2023-07-09T16:55:50.727Z,25.71
2023-07-09T16:58:37.682Z,25.68
2023-07-09T17:01:06.881Z,25.80
2023-07-09T17:03:34.708Z,25.96
2023-07-09T17:06:02.309Z,26.14
2023-07-09T17:08:29.832Z,25.84
2023-07-09T17:10:59.310Z,25.97
2023-07-09T17:13:31.700Z,26.08
2023-07-09T17:15:59.172Z,26.36
2023-07-09T17:18:30.243Z,26.45
2023-07-09T17:21:00.576Z,26.34
2023-07-09T17:23:30.604Z,26.40
2023-07-09T17:25:58.303Z,26.24
2023-07-09T17:28:29.119Z,26.15
2023-07-09T17:30:57.706Z,26.03
2023-07-09T17:33:25.698Z,25.96
2023-07-09T17:35:55.163Z,26.14
2023-07-09T17:38:35.030Z,26.19
2023-07-09T17:41:02.693Z,25.83
2023-07-09T17:43:30.187Z,25.87
2023-07-09T17:45:57.660Z,25.86
2023-07-09T17:48:31.048Z,25.85
2023-07-09T17:50:59.185Z,26.20
2023-07-09T17:53:29.758Z,25.86
2023-07-09T17:55:57.976Z,25.44
2023-07-09T17:58:34.592Z,25.55
2023-07-09T18:01:04.339Z,25.84
2023-07-09T18:03:32.392Z,25.93
2023-07-09T18:06:00.312Z,25.51
2023-07-09T18:08:27.820Z,25.70
2023-07-09T18:10:55.544Z,25.76
2023-07-09T18:13:26.569Z,25.37
2023-07-09T18:15:55.596Z,25.74
2023-07-09T18:18:23.301Z,25.83
2023-07-09T18:20:51.923Z,25.78
2023-07-09T18:23:22.500Z,25.23
2023-07-09T18:25:50.997Z,25.31
2023-07-09T18:28:31.774Z,25.39
2023-07-09T18:31:11.848Z,25.62
2023-07-09T18:33:44.994Z,25.43
2023-07-09T18:36:12.618Z,25.05
2023-07-09T18:38:40.183Z,25.06
2023-07-09T18:41:15.595Z,25.17
2023-07-09T18:43:43.101Z,25.39
2023-07-09T18:46:13.779Z,25.32
2023-07-09T18:48:41.178Z,25.27
2023-07-09T18:51:12.029Z,25.14
2023-07-09T18:53:40.494Z,25.07
2023-07-09T18:56:08.090Z,24.80
2023-07-09T18:58:37.185Z,24.85
2023-07-09T19:01:06.803Z,24.58
2023-07-09T19:03:36.981Z,24.90
2023-07-09T19:06:05.395Z,24.95
2023-07-09T19:08:35.931Z,24.97
2023-07-09T19:11:03.940Z,24.66
2023-07-09T19:13:31.393Z,24.85
2023-07-09T19:16:03.457Z,24.61
2023-07-09T19:18:34.609Z,24.79
2023-07-09T19:21:03.737Z,24.47
2023-07-09T19:23:31.169Z,24.52
2023-07-09T19:25:58.723Z,24.66
2023-07-09T19:28:26.286Z,24.80
2023-07-09T19:30:54.641Z,24.80
2023-07-09T19:33:25.358Z,24.63
2023-07-09T19:35:53.073Z,24.57
2023-07-09T19:38:20.648Z,24.78
2023-07-09T19:40:48.139Z,24.94
2023-07-09T19:43:15.507Z,24.90
2023-07-09T19:45:45.447Z,25.03
2023-07-09T19:48:20.041Z,25.00
2023-07-09T19:50:51.508Z,25.02
2023-07-09T19:53:21.268Z,25.16
2023-07-09T19:55:49.248Z,25.35
2023-07-09T19:58:16.803Z,25.04
2023-07-09T20:00:45.956Z,24.95
2023-07-09T20:03:24.038Z,24.78
2023-07-09T20:05:51.799Z,24.62
2023-07-09T20:08:20.441Z,24.71
2023-07-09T20:10:48.617Z,24.77
2023-07-09T20:13:27.512Z,25.18
2023-07-09T20:15:55.914Z,24.37
2023-07-09T20:18:23.855Z,24.12
2023-07-09T20:20:56.765Z,24.27
2023-07-09T20:23:25.120Z,24.31
2023-07-09T20:25:54.490Z,24.68
2023-07-09T20:28:24.204Z,24.73
2023-07-09T20:30:52.691Z,25.02
2023-07-09T20:33:20.541Z,25.17
2023-07-09T20:35:47.962Z,25.25
2023-07-09T20:38:18.415Z,25.41
2023-07-09T20:40:46.504Z,25.34
2023-07-09T20:43:37.477Z,25.28
2023-07-09T20:46:05.175Z,25.55
2023-07-09T20:48:33.542Z,25.76
2023-07-09T20:51:01.084Z,25.41
2023-07-09T20:53:28.583Z,25.50
2023-07-09T20:55:58.452Z,25.62
2023-07-09T20:58:27.253Z,24.78
2023-07-09T21:00:55.392Z,24.68
2023-07-09T21:03:26.078Z,24.68
2023-07-09T21:05:54.139Z,24.82
2023-07-09T21:08:24.346Z,24.73
2023-07-09T21:10:52.061Z,24.67
2023-07-09T21:13:22.693Z,25.14
2023-07-09T21:15:53.190Z,25.20
2023-07-09T21:18:22.308Z,25.19
2023-07-09T21:20:49.821Z,25.06
2023-07-09T21:23:20.763Z,24.84
2023-07-09T21:25:48.878Z,24.91
2023-07-09T21:28:16.508Z,25.00
2023-07-09T21:30:45.044Z,24.94
2023-07-09T21:33:18.413Z,25.00
2023-07-09T21:35:47.272Z,24.68
2023-07-09T21:38:20.178Z,24.59
2023-07-09T21:40:50.131Z,24.66
2023-07-09T21:43:17.498Z,24.97
2023-07-09T21:45:45.572Z,24.81
2023-07-09T21:48:17.378Z,24.76
2023-07-09T21:50:44.920Z,24.62
2023-07-09T21:53:23.482Z,24.44
2023-07-09T21:55:59.320Z,24.39
2023-07-09T21:58:26.768Z,24.28
2023-07-09T22:00:56.496Z,24.19
2023-07-09T22:03:24.778Z,24.24
2023-07-09T22:05:52.261Z,24.32
2023-07-09T22:08:21.434Z,24.26
2023-07-09T22:10:49.246Z,24.29
2023-07-09T22:13:18.312Z,24.46
2023-07-09T22:15:46.049Z,24.37
2023-07-09T22:18:18.610Z,24.38
2023-07-09T22:20:46.488Z,24.45
2023-07-09T22:23:22.303Z,24.38
2023-07-09T22:25:50.966Z,24.48
2023-07-09T22:28:19.690Z,24.41
2023-07-09T22:30:47.740Z,24.46
2023-07-09T22:33:15.629Z,24.30
2023-07-09T22:35:43.156Z,24.35
2023-07-09T22:38:19.095Z,24.28
2023-07-09T22:40:46.759Z,24.33
2023-07-09T22:43:14.203Z,24.50
2023-07-09T22:45:44.015Z,24.29
2023-07-09T22:48:15.389Z,24.34
2023-07-09T22:50:43.449Z,24.47
2023-07-09T22:53:14.738Z,24.46
2023-07-09T22:55:45.167Z,24.66
2023-07-09T22:58:13.866Z,24.69
2023-07-09T23:01:03.557Z,24.78
2023-07-09T23:03:36.468Z,24.91
2023-07-09T23:06:16.113Z,24.93
2023-07-09T23:08:44.054Z,25.13
2023-07-09T23:11:24.634Z,25.43
2023-07-09T23:13:52.318Z,25.66
2023-07-09T23:16:22.186Z,25.35
2023-07-09T23:18:49.674Z,25.60
2023-07-09T23:21:21.849Z,25.65
2023-07-09T23:23:50.917Z,25.29
2023-07-09T23:26:18.895Z,25.32
2023-07-09T23:28:46.869Z,25.37
2023-07-09T23:31:25.038Z,25.50
2023-07-09T23:33:52.895Z,25.40
2023-07-09T23:36:20.406Z,25.37
2023-07-09T23:38:48.092Z,25.45
2023-07-09T23:41:23.875Z,25.43
2023-07-09T23:43:51.828Z,25.51
2023-07-09T23:46:20.194Z,25.53
2023-07-09T23:48:51.366Z,25.53
2023-07-09T23:51:28.240Z,25.65
2023-07-09T23:53:55.583Z,25.53
2023-07-09T23:56:33.951Z,25.58
2023-07-09T23:59:02.008Z,25.45
